Time;durP1;ratioP1;P1;durP2;ratioP2;P2;SDS_P1;SDS_P2;PMS_P1;PMS_P2;Temp;Humidity;BMP_temperature;BMP_pressure;BME280_temperature;BME280_humidity;BME280_pressure;Samples;Min_cycle;Max_cycle;Signal;HPM_P1;HPM_P2
2021/08/23 00:00:49;;;;;;;4.32;2.90;;;17.80;99.90;;;;;;4983654;28;20065;-70
2021/08/23 00:03:15;;;;;;;6.95;2.92;;;17.80;99.90;;;;;;4997117;28;20034;-70
2021/08/23 00:05:40;;;;;;;4.85;2.78;;;17.80;99.90;;;;;;5000181;28;20034;-70
2021/08/23 00:08:06;;;;;;;5.10;2.90;;;17.80;99.90;;;;;;4996946;28;20038;-70
2021/08/23 00:10:32;;;;;;;6.20;3.15;;;17.80;99.90;;;;;;5000227;28;20046;-70
2021/08/23 00:12:57;;;;;;;5.45;3.40;;;17.80;99.90;;;;;;5000455;28;20560;-70
2021/08/23 00:15:23;;;;;;;6.22;3.10;;;17.80;99.90;;;;;;4996107;28;20042;-70
2021/08/23 00:17:48;;;;;;;7.45;3.35;;;17.80;99.90;;;;;;5000168;28;20038;-70
2021/08/23 00:20:16;;;;;;;4.35;2.67;;;17.80;99.90;;;;;;4983503;28;20112;-74
2021/08/23 00:22:51;;;;;;;5.25;3.58;;;17.80;99.90;;;;;;4998777;28;20026;-70
2021/08/23 00:25:17;;;;;;;10.02;2.88;;;17.80;99.90;;;;;;5004707;28;20045;-70
2021/08/23 00:27:43;;;;;;;6.20;3.03;;;17.80;99.90;;;;;;5000519;28;20106;-70
2021/08/23 00:30:12;;;;;;;9.25;3.58;;;17.80;99.90;;;;;;5003950;28;20033;-70
2021/08/23 00:32:38;;;;;;;4.72;2.85;;;17.80;99.90;;;;;;5006172;28;20033;-69
2021/08/23 00:35:04;;;;;;;4.65;2.72;;;17.80;99.90;;;;;;5005213;28;20034;-70
2021/08/23 00:37:30;;;;;;;7.00;2.88;;;17.80;99.90;;;;;;5001146;28;20513;-70
2021/08/23 00:39:56;;;;;;;5.47;2.90;;;17.80;99.90;;;;;;5005300;28;20038;-70
2021/08/23 00:42:22;;;;;;;6.47;3.08;;;17.80;99.90;;;;;;5001096;28;20034;-70
2021/08/23 00:44:48;;;;;;;5.35;3.10;;;17.80;99.90;;;;;;5004019;28;20068;-69
2021/08/23 00:47:13;;;;;;;4.90;3.03;;;17.80;99.90;;;;;;4996661;28;20026;-69
2021/08/23 00:49:39;;;;;;;6.55;3.20;;;17.80;99.90;;;;;;4999937;28;20379;-69
2021/08/23 00:52:06;;;;;;;6.00;3.50;;;17.80;99.90;;;;;;5000538;28;20234;-70
2021/08/23 00:54:33;;;;;;;5.20;3.33;;;17.80;99.90;;;;;;5003138;28;20034;-70
2021/08/23 00:56:59;;;;;;;6.20;3.88;;;17.80;99.90;;;;;;5005175;28;20045;-69
2021/08/23 00:59:30;;;;;;;6.15;3.85;;;17.80;99.90;;;;;;5003755;28;20030;-70
2021/08/23 01:02:18;;;;;;;8.23;4.53;;;17.80;99.90;;;;;;4984481;28;20049;-69
2021/08/23 01:04:49;;;;;;;7.13;4.25;;;17.80;99.90;;;;;;5001041;28;20045;-70
2021/08/23 01:07:17;;;;;;;8.05;5.15;;;17.80;99.90;;;;;;5000833;28;20505;-69
2021/08/23 01:09:49;;;;;;;7.85;5.10;;;17.80;99.90;;;;;;4986047;28;20030;-70
2021/08/23 01:12:15;;;;;;;11.57;5.28;;;17.80;99.90;;;;;;5001067;28;20058;-68
2021/08/23 01:14:42;;;;;;;9.07;4.68;;;17.80;99.90;;;;;;5003396;28;20469;-70
2021/08/23 01:17:07;;;;;;;8.50;5.53;;;17.80;99.90;;;;;;4999146;28;20088;-70
2021/08/23 01:19:36;;;;;;;10.38;5.93;;;17.70;99.90;;;;;;4998920;28;20583;-71
2021/08/23 01:22:04;;;;;;;9.10;5.97;;;17.70;99.90;;;;;;5000855;28;20060;-70
2021/08/23 01:24:33;;;;;;;11.82;6.03;;;17.70;99.90;;;;;;5003712;28;20105;-71
2021/08/23 01:27:03;;;;;;;10.52;6.10;;;17.70;99.90;;;;;;4982317;28;20037;-70
2021/08/23 01:29:35;;;;;;;10.48;5.57;;;17.70;99.90;;;;;;5001578;28;20030;-70
2021/08/23 01:32:22;;;;;;;10.45;6.18;;;17.70;99.90;;;;;;4998794;28;20045;-70
2021/08/23 01:34:49;;;;;;;8.88;5.30;;;17.70;99.90;;;;;;4995085;28;20121;-70
2021/08/23 01:37:17;;;;;;;10.48;6.10;;;17.70;99.90;;;;;;5002035;28;20030;-69
2021/08/23 01:39:43;;;;;;;11.13;5.90;;;17.60;99.90;;;;;;5007797;28;20037;-70
2021/08/23 01:42:09;;;;;;;11.77;5.70;;;17.60;99.90;;;;;;4998796;28;20093;-71
2021/08/23 01:44:35;;;;;;;11.10;7.28;;;17.60;99.90;;;;;;4984966;28;20698;-70
2021/08/23 01:47:01;;;;;;;10.32;6.28;;;17.60;99.90;;;;;;4985081;28;20045;-70
2021/08/23 01:49:26;;;;;;;10.95;5.88;;;17.60;99.90;;;;;;5001396;28;20117;-69
2021/08/23 01:51:53;;;;;;;11.35;6.03;;;17.60;99.90;;;;;;5000836;28;20031;-70
2021/08/23 01:54:19;;;;;;;11.00;6.10;;;17.60;99.90;;;;;;5003084;28;20418;-70
2021/08/23 01:56:45;;;;;;;11.20;6.63;;;17.50;99.90;;;;;;5006419;28;20492;-69
2021/08/23 01:59:10;;;;;;;9.32;5.57;;;17.50;99.90;;;;;;5002531;28;20061;-70
2021/08/23 02:01:36;;;;;;;11.82;6.13;;;17.60;99.90;;;;;;4999230;28;20026;-69
2021/08/23 02:04:02;;;;;;;9.80;5.68;;;17.60;99.90;;;;;;4983987;28;20033;-69
2021/08/23 02:06:28;;;;;;;10.52;6.05;;;17.60;99.90;;;;;;5011463;28;20106;-70
2021/08/23 02:08:54;;;;;;;9.95;6.05;;;17.60;99.90;;;;;;4998906;28;20070;-70
2021/08/23 02:11:23;;;;;;;10.80;6.50;;;17.60;99.90;;;;;;4982686;28;20089;-70
2021/08/23 02:13:49;;;;;;;9.87;5.53;;;17.60;99.90;;;;;;5001275;28;20104;-69
2021/08/23 02:16:14;;;;;;;10.32;5.45;;;17.50;99.90;;;;;;4981421;28;20974;-69
2021/08/23 02:18:40;;;;;;;11.45;5.72;;;17.50;99.90;;;;;;5002584;28;20029;-69
2021/08/23 02:21:05;;;;;;;11.02;5.03;;;17.50;99.90;;;;;;4998537;28;20034;-70
2021/08/23 02:23:31;;;;;;;13.90;5.97;;;17.40;99.90;;;;;;5001290;28;20079;-70
2021/08/23 02:25:57;;;;;;;12.25;6.55;;;17.40;99.90;;;;;;5001395;28;20203;-70
2021/08/23 02:28:22;;;;;;;12.45;6.30;;;17.40;99.90;;;;;;5001958;28;20446;-69
2021/08/23 02:30:48;;;;;;;14.60;6.70;;;17.30;99.90;;;;;;4997050;28;20099;-70
2021/08/23 02:33:14;;;;;;;17.88;7.40;;;17.40;99.90;;;;;;5006046;28;20056;-69
2021/08/23 02:35:39;;;;;;;15.43;7.40;;;17.30;99.90;;;;;;4995110;28;20038;-70
2021/08/23 02:38:07;;;;;;;19.13;7.82;;;17.20;99.90;;;;;;4983770;28;20030;-69
2021/08/23 02:40:33;;;;;;;14.65;7.85;;;17.20;99.90;;;;;;5004941;28;20049;-68
2021/08/23 02:42:58;;;;;;;13.93;7.22;;;17.20;99.90;;;;;;4998935;28;20046;-70
2021/08/23 02:45:24;;;;;;;15.80;7.57;;;17.20;99.90;;;;;;4999716;28;20038;-69
2021/08/23 02:47:50;;;;;;;14.52;7.68;;;17.10;99.90;;;;;;5000704;28;20043;-70
2021/08/23 02:50:15;;;;;;;18.55;8.55;;;17.10;99.90;;;;;;5000337;28;20778;-71
2021/08/23 02:52:41;;;;;;;19.33;8.75;;;17.10;99.90;;;;;;4999439;28;20030;-70
2021/08/23 02:55:07;;;;;;;22.05;9.57;;;17.10;99.90;;;;;;4980285;28;20406;-70
2021/08/23 02:57:33;;;;;;;18.55;8.48;;;17.00;99.90;;;;;;5002475;28;20034;-69
2021/08/23 02:59:58;;;;;;;19.55;8.60;;;17.00;99.90;;;;;;4998760;28;20374;-70
2021/08/23 03:02:24;;;;;;;16.23;7.95;;;17.00;99.90;;;;;;4983257;28;20075;-70
2021/08/23 03:04:49;;;;;;;14.85;7.40;;;17.00;99.90;;;;;;5000043;28;20038;-70
2021/08/23 03:07:15;;;;;;;16.63;7.28;;;17.00;99.90;;;;;;4981345;28;20030;-70
2021/08/23 03:09:40;;;;;;;15.02;7.05;;;17.00;99.90;;;;;;5016400;28;20503;-70
2021/08/23 03:12:06;;;;;;;11.63;5.65;;;17.00;99.90;;;;;;5001384;28;20526;-69
2021/08/23 03:14:32;;;;;;;12.52;6.22;;;17.00;99.90;;;;;;5001957;28;20038;-70
2021/08/23 03:16:57;;;;;;;13.65;7.47;;;17.00;99.90;;;;;;4981171;28;20030;-70
2021/08/23 03:19:23;;;;;;;11.65;6.28;;;16.90;99.90;;;;;;5000565;28;20038;-70
2021/08/23 03:21:49;;;;;;;13.90;5.22;;;17.00;99.90;;;;;;5000792;28;20033;-69
2021/08/23 03:24:14;;;;;;;12.93;5.88;;;16.90;99.90;;;;;;5002565;28;20022;-70
2021/08/23 03:26:40;;;;;;;11.63;5.50;;;16.90;99.90;;;;;;4985264;28;20619;-69
2021/08/23 03:29:09;;;;;;;9.52;4.43;;;16.90;99.90;;;;;;5001084;28;20032;-69
2021/08/23 03:31:35;;;;;;;7.45;4.50;;;16.90;99.90;;;;;;4999461;28;20037;-70
2021/08/23 03:34:00;;;;;;;9.48;4.82;;;16.90;99.90;;;;;;4986496;28;20022;-70
2021/08/23 03:36:26;;;;;;;13.00;5.28;;;16.90;99.90;;;;;;4998475;28;20038;-70
2021/08/23 03:38:52;;;;;;;9.63;4.97;;;16.90;99.90;;;;;;5001350;28;20035;-70
2021/08/23 03:41:18;;;;;;;10.05;5.00;;;16.80;99.90;;;;;;5000855;28;20054;-70
2021/08/23 03:43:43;;;;;;;10.68;4.53;;;16.90;99.90;;;;;;4981993;28;20030;-70
2021/08/23 03:46:10;;;;;;;9.55;5.57;;;16.90;99.90;;;;;;4983809;28;20033;-70
2021/08/23 03:48:35;;;;;;;9.45;4.75;;;16.90;99.90;;;;;;5003337;28;20526;-70
2021/08/23 03:51:01;;;;;;;12.60;5.40;;;16.90;99.90;;;;;;4981093;28;20045;-70
2021/08/23 03:53:26;;;;;;;11.82;5.30;;;16.90;99.90;;;;;;4984878;28;20048;-69
2021/08/23 03:55:52;;;;;;;9.85;5.00;;;16.80;99.90;;;;;;4998297;28;20037;-70
2021/08/23 03:58:17;;;;;;;10.85;5.20;;;16.80;99.90;;;;;;4985255;28;20034;-70
2021/08/23 04:00:43;;;;;;;14.27;5.70;;;16.80;99.90;;;;;;4986627;28;20037;-70
2021/08/23 04:03:09;;;;;;;13.68;5.00;;;16.80;99.90;;;;;;5003212;28;20050;-70
2021/08/23 04:05:34;;;;;;;13.57;5.72;;;16.90;99.90;;;;;;5004559;28;20033;-71
2021/08/23 04:08:00;;;;;;;13.25;5.00;;;16.80;99.90;;;;;;5001938;28;20034;-71
2021/08/23 04:10:25;;;;;;;11.68;4.80;;;16.80;99.90;;;;;;4984035;28;20048;-71
2021/08/23 04:12:51;;;;;;;12.35;5.00;;;16.80;99.90;;;;;;5003903;28;20065;-69
2021/08/23 04:15:17;;;;;;;9.25;4.97;;;16.70;99.90;;;;;;4985768;28;20078;-70
2021/08/23 04:17:42;;;;;;;10.05;4.85;;;16.80;99.90;;;;;;5001599;28;20050;-71
2021/08/23 04:20:08;;;;;;;8.38;4.38;;;16.80;99.90;;;;;;5002324;28;20037;-71
2021/08/23 04:22:34;;;;;;;8.30;4.30;;;16.70;99.90;;;;;;4987794;28;20030;-71
2021/08/23 04:24:59;;;;;;;10.70;4.38;;;16.90;99.90;;;;;;4997713;28;20026;-70
2021/08/23 04:27:25;;;;;;;8.57;4.25;;;16.80;99.90;;;;;;5004588;28;20501;-71
2021/08/23 04:29:51;;;;;;;6.88;3.65;;;16.80;99.90;;;;;;5001101;28;20068;-70
2021/08/23 04:32:16;;;;;;;9.60;4.18;;;16.80;99.90;;;;;;5006531;28;20026;-70
2021/08/23 04:34:42;;;;;;;6.90;3.30;;;16.80;99.90;;;;;;5005823;28;20150;-71
2021/08/23 04:37:08;;;;;;;8.05;4.00;;;16.80;99.90;;;;;;4981197;28;20030;-70
2021/08/23 04:39:34;;;;;;;11.70;4.13;;;16.80;99.90;;;;;;4986777;28;20455;-71
2021/08/23 04:42:00;;;;;;;7.25;3.30;;;16.80;99.90;;;;;;4998947;28;20057;-71
2021/08/23 04:44:26;;;;;;;6.13;2.75;;;16.80;99.90;;;;;;5004602;28;20100;-70
2021/08/23 04:46:52;;;;;;;11.10;3.80;;;16.80;99.90;;;;;;5006489;28;20038;-71
2021/08/23 04:49:18;;;;;;;6.35;2.63;;;16.80;99.90;;;;;;5018000;28;20107;-70
2021/08/23 04:51:43;;;;;;;5.35;2.47;;;16.80;99.90;;;;;;5001729;28;20058;-70
2021/08/23 04:54:09;;;;;;;5.90;2.67;;;16.80;99.90;;;;;;5005306;28;20026;-70
2021/08/23 04:56:35;;;;;;;9.88;2.13;;;16.90;99.90;;;;;;5005322;28;20050;-70
2021/08/23 04:59:01;;;;;;;7.07;1.88;;;16.90;99.90;;;;;;5005174;28;20026;-70
2021/08/23 05:01:27;;;;;;;5.43;2.20;;;16.90;99.90;;;;;;5000617;28;20034;-70
2021/08/23 05:03:52;;;;;;;5.43;2.15;;;16.80;99.90;;;;;;5007825;28;20363;-70
2021/08/23 05:06:18;;;;;;;8.02;2.40;;;16.90;99.90;;;;;;5004673;28;20030;-70
2021/08/23 05:08:44;;;;;;;5.38;1.73;;;16.90;99.90;;;;;;5012742;28;20038;-70
2021/08/23 05:11:10;;;;;;;8.95;2.25;;;16.90;99.90;;;;;;5005366;28;20072;-70
2021/08/23 05:13:36;;;;;;;5.97;1.77;;;16.90;99.90;;;;;;5000486;28;20457;-69
2021/08/23 05:16:01;;;;;;;7.22;2.42;;;16.90;99.90;;;;;;5003389;28;20072;-68
2021/08/23 05:18:27;;;;;;;4.63;1.73;;;16.90;99.90;;;;;;4987556;28;20049;-69
2021/08/23 05:20:52;;;;;;;8.70;1.50;;;16.90;99.90;;;;;;5007965;28;20031;-69
2021/08/23 05:23:18;;;;;;;3.92;1.98;;;16.90;99.90;;;;;;4988555;28;20081;-69
2021/08/23 05:25:44;;;;;;;5.63;2.00;;;17.00;99.90;;;;;;5007544;28;20030;-68
2021/08/23 05:28:09;;;;;;;4.75;1.85;;;17.00;99.90;;;;;;5005864;28;20033;-69
2021/08/23 05:30:35;;;;;;;6.88;1.52;;;17.00;99.90;;;;;;5004965;28;20044;-69
2021/08/23 05:33:02;;;;;;;3.72;1.30;;;17.00;99.90;;;;;;4990388;28;20073;-69
2021/08/23 05:35:28;;;;;;;6.13;1.70;;;17.10;99.90;;;;;;5009638;28;20042;-68
2021/08/23 05:37:53;;;;;;;9.23;1.55;;;17.00;99.90;;;;;;5008587;28;20045;-70
2021/08/23 05:40:26;;;;;;;5.28;1.75;;;17.10;99.90;;;;;;4996717;28;20049;-69
2021/08/23 05:42:52;;;;;;;3.63;1.15;;;17.10;99.90;;;;;;5006210;28;20117;-69
2021/08/23 05:45:19;;;;;;;5.40;1.40;;;17.10;99.90;;;;;;5005587;28;20688;-69
2021/08/23 05:47:45;;;;;;;3.95;1.30;;;17.10;99.90;;;;;;5009676;28;20590;-69
2021/08/23 05:50:11;;;;;;;6.43;2.35;;;17.20;99.90;;;;;;4984371;28;20026;-68
2021/08/23 05:52:36;;;;;;;10.10;2.50;;;17.20;99.90;;;;;;4990611;28;20045;-68
2021/08/23 05:55:02;;;;;;;4.50;1.50;;;17.20;99.90;;;;;;5002692;28;20069;-69
2021/08/23 05:57:28;;;;;;;4.28;1.35;;;17.20;99.90;;;;;;4988840;28;20037;-69
2021/08/23 05:59:55;;;;;;;4.43;1.35;;;17.30;99.90;;;;;;4985320;28;20076;-69
2021/08/23 06:02:20;;;;;;;4.90;1.15;;;17.30;99.90;;;;;;5004391;28;20098;-69
2021/08/23 06:04:46;;;;;;;3.40;1.10;;;17.40;99.90;;;;;;5006745;28;20037;-68
2021/08/23 06:07:14;;;;;;;6.25;0.90;;;17.50;99.90;;;;;;5006690;28;20405;-69
2021/08/23 06:09:40;;;;;;;3.75;1.10;;;17.60;99.90;;;;;;4988573;28;20053;-70
2021/08/23 06:12:06;;;;;;;4.30;1.10;;;17.70;99.90;;;;;;4988276;28;20026;-69
2021/08/23 06:14:31;;;;;;;4.45;0.93;;;17.70;99.90;;;;;;5005976;28;20490;-68
2021/08/23 06:16:57;;;;;;;4.07;0.80;;;17.90;99.90;;;;;;4987128;28;20049;-68
2021/08/23 06:19:23;;;;;;;4.13;1.52;;;17.90;99.90;;;;;;5004512;28;20026;-69
2021/08/23 06:21:48;;;;;;;6.78;1.30;;;17.80;99.90;;;;;;5009923;28;20041;-69
2021/08/23 06:24:14;;;;;;;4.95;0.90;;;17.80;99.90;;;;;;5008034;28;20018;-69
2021/08/23 06:26:39;;;;;;;3.20;1.08;;;17.90;99.90;;;;;;5005887;28;20117;-70
2021/08/23 06:29:07;;;;;;;2.75;0.70;;;17.90;99.90;;;;;;5004653;28;20038;-71
2021/08/23 06:31:32;;;;;;;3.97;1.00;;;17.90;99.90;;;;;;5004226;28;20037;-69
2021/08/23 06:33:58;;;;;;;7.22;1.30;;;18.00;99.90;;;;;;5008606;28;20149;-69
2021/08/23 06:36:24;;;;;;;4.97;0.93;;;18.00;99.90;;;;;;5006383;28;20389;-69
2021/08/23 06:38:49;;;;;;;4.68;0.90;;;17.90;99.90;;;;;;4987206;28;20042;-69
2021/08/23 06:41:20;;;;;;;4.00;1.08;;;17.90;99.90;;;;;;5004863;28;20037;-69
2021/08/23 06:43:46;;;;;;;4.13;0.93;;;18.00;99.90;;;;;;4989577;28;20045;-69
2021/08/23 06:46:12;;;;;;;2.30;0.90;;;18.00;99.90;;;;;;5002097;28;20129;-69
2021/08/23 06:48:38;;;;;;;6.15;1.40;;;18.00;99.90;;;;;;5009695;28;20092;-69
2021/08/23 06:51:03;;;;;;;1.77;0.65;;;18.10;99.90;;;;;;5004567;28;20068;-69
2021/08/23 06:53:29;;;;;;;3.15;0.80;;;18.20;99.90;;;;;;5003617;28;20052;-70
2021/08/23 06:55:55;;;;;;;2.00;0.47;;;18.30;99.90;;;;;;4989656;28;20497;-69
2021/08/23 06:58:20;;;;;;;2.95;0.80;;;18.30;99.90;;;;;;5007342;28;20038;-69
2021/08/23 07:00:46;;;;;;;3.38;0.80;;;18.30;99.90;;;;;;5003189;28;20547;-69
2021/08/23 07:03:11;;;;;;;2.20;0.75;;;18.30;99.90;;;;;;5005884;28;20397;-69
2021/08/23 07:05:37;;;;;;;6.57;1.00;;;18.50;99.90;;;;;;5008092;28;20041;-69
2021/08/23 07:08:03;;;;;;;4.47;1.10;;;18.50;99.90;;;;;;5008780;28;20049;-69
2021/08/23 07:10:28;;;;;;;2.83;0.68;;;18.50;99.90;;;;;;5001150;28;20057;-70
2021/08/23 07:12:54;;;;;;;6.50;1.67;;;18.40;99.90;;;;;;5005315;28;20039;-69
2021/08/23 07:15:20;;;;;;;3.22;1.05;;;18.50;99.90;;;;;;5009073;28;20482;-69
2021/08/23 07:17:45;;;;;;;3.20;0.90;;;18.60;99.90;;;;;;5007381;28;20041;-69
2021/08/23 07:20:11;;;;;;;3.53;0.80;;;18.60;99.90;;;;;;5006888;28;20056;-69
2021/08/23 07:22:37;;;;;;;5.70;1.00;;;18.70;99.90;;;;;;5006345;28;20038;-69
2021/08/23 07:25:04;;;;;;;4.10;0.80;;;18.70;99.90;;;;;;5005307;28;20125;-69
2021/08/23 07:27:31;;;;;;;4.25;0.68;;;18.70;99.90;;;;;;4986887;28;20072;-69
2021/08/23 07:29:57;;;;;;;2.63;0.80;;;18.90;99.90;;;;;;4989490;28;20098;-69
2021/08/23 07:32:23;;;;;;;2.15;0.80;;;18.90;99.90;;;;;;5007271;28;20097;-70
2021/08/23 07:34:49;;;;;;;4.30;0.77;;;19.00;99.90;;;;;;5008596;28;20030;-69
2021/08/23 07:37:15;;;;;;;5.88;1.27;;;19.00;99.90;;;;;;5006522;28;20037;-68
2021/08/23 07:39:42;;;;;;;1.38;0.68;;;19.10;99.90;;;;;;4988435;28;20042;-69
2021/08/23 07:42:08;;;;;;;4.60;1.73;;;19.00;99.90;;;;;;5008454;28;20037;-69
2021/08/23 07:44:33;;;;;;;2.60;0.70;;;19.10;99.90;;;;;;5005803;28;20030;-69
2021/08/23 07:46:59;;;;;;;3.75;0.80;;;19.10;99.90;;;;;;5005617;28;20042;-69
2021/08/23 07:49:24;;;;;;;7.32;1.15;;;19.10;99.90;;;;;;5005101;28;20072;-69
2021/08/23 07:51:50;;;;;;;3.53;1.05;;;19.10;99.90;;;;;;5006053;28;20039;-68
2021/08/23 07:54:18;;;;;;;2.63;0.80;;;19.20;99.90;;;;;;5003288;28;20073;-69
2021/08/23 07:56:44;;;;;;;4.53;0.88;;;19.20;99.90;;;;;;4989048;28;20040;-69
2021/08/23 07:59:10;;;;;;;4.80;0.82;;;19.30;99.90;;;;;;5007164;28;20556;-69
2021/08/23 08:01:35;;;;;;;8.02;0.70;;;19.30;99.90;;;;;;5006587;28;20038;-68
2021/08/23 08:04:01;;;;;;;2.03;0.47;;;19.40;99.90;;;;;;5007103;28;20079;-69
2021/08/23 08:06:26;;;;;;;2.58;0.85;;;19.40;99.90;;;;;;5000963;28;20034;-69
2021/08/23 08:08:52;;;;;;;3.05;0.70;;;19.40;99.90;;;;;;5003349;28;20037;-68
2021/08/23 08:11:19;;;;;;;3.45;0.80;;;19.50;99.90;;;;;;5004783;28;20046;-69
2021/08/23 08:13:44;;;;;;;2.42;0.73;;;19.50;99.90;;;;;;4986272;28;20120;-70
2021/08/23 08:16:10;;;;;;;3.45;0.63;;;19.50;99.90;;;;;;5004095;28;20125;-69
2021/08/23 08:18:36;;;;;;;3.20;0.88;;;19.60;99.90;;;;;;5005806;28;20046;-69
2021/08/23 08:21:01;;;;;;;5.10;0.88;;;19.60;99.90;;;;;;5004170;28;20022;-69
2021/08/23 08:23:27;;;;;;;3.88;0.65;;;19.60;99.90;;;;;;4988932;28;20121;-69
2021/08/23 08:25:52;;;;;;;3.00;1.15;;;19.70;99.90;;;;;;4987440;28;20091;-69
2021/08/23 08:28:18;;;;;;;2.85;0.77;;;19.80;99.90;;;;;;5006562;28;20030;-69
2021/08/23 08:30:43;;;;;;;4.97;0.60;;;19.90;99.90;;;;;;5002540;28;20453;-69
2021/08/23 08:33:09;;;;;;;2.83;0.70;;;20.00;99.90;;;;;;5005304;28;20045;-70
2021/08/23 08:35:35;;;;;;;2.85;0.77;;;20.00;99.90;;;;;;5005491;28;20037;-68
2021/08/23 08:38:01;;;;;;;1.88;0.73;;;20.10;99.90;;;;;;5004810;28;20045;-69
2021/08/23 08:40:27;;;;;;;2.38;0.80;;;19.90;99.90;;;;;;5004022;28;20109;-68
2021/08/23 08:42:54;;;;;;;2.20;0.47;;;19.90;99.90;;;;;;5005291;28;20033;-70
2021/08/23 08:45:20;;;;;;;2.58;0.75;;;20.00;99.90;;;;;;5008244;28;20061;-69
2021/08/23 08:47:46;;;;;;;3.13;0.60;;;20.10;99.90;;;;;;5006734;28;20470;-68
2021/08/23 08:50:16;;;;;;;1.73;0.50;;;20.30;99.90;;;;;;4990664;28;20026;-68
2021/08/23 08:52:45;;;;;;;1.48;0.43;;;20.50;99.90;;;;;;4989176;28;20057;-70
2021/08/23 08:55:10;;;;;;;4.28;0.80;;;20.70;99.90;;;;;;5007645;28;20233;-70
2021/08/23 08:57:37;;;;;;;3.65;0.55;;;20.80;99.90;;;;;;5008162;28;20124;-71
2021/08/23 09:00:05;;;;;;;1.63;0.70;;;20.80;99.90;;;;;;5008890;28;20034;-69
2021/08/23 09:02:31;;;;;;;6.13;0.60;;;20.90;99.90;;;;;;5007350;28;20091;-70
2021/08/23 09:04:58;;;;;;;3.92;0.70;;;21.00;99.90;;;;;;5007269;28;20635;-69
2021/08/23 09:07:23;;;;;;;3.40;0.70;;;21.10;99.90;;;;;;5008596;28;20044;-70
2021/08/23 09:09:49;;;;;;;2.92;1.00;;;21.10;99.90;;;;;;5006899;28;20030;-70
2021/08/23 09:12:15;;;;;;;2.83;0.60;;;21.10;99.90;;;;;;5004604;28;20488;-71
2021/08/23 09:14:52;;;;;;;4.45;0.75;;;21.10;99.90;;;;;;5004261;28;20117;-70
2021/08/23 09:17:25;;;;;;;3.63;1.00;;;21.00;99.90;;;;;;5003576;28;20417;-70
2021/08/23 09:19:58;;;;;;;4.40;0.63;;;21.10;99.90;;;;;;5006298;28;20034;-70
2021/08/23 09:22:25;;;;;;;2.75;0.43;;;21.30;99.90;;;;;;5005302;28;20042;-70
2021/08/23 09:24:52;;;;;;;4.20;0.73;;;21.40;99.90;;;;;;5006479;28;20045;-68
2021/08/23 09:27:17;;;;;;;3.65;0.65;;;21.40;99.90;;;;;;4980301;28;20152;-70
2021/08/23 09:29:59;;;;;;;2.95;0.77;;;21.40;99.90;;;;;;5001367;28;20656;-68
2021/08/23 09:32:27;;;;;;;2.47;0.60;;;21.20;99.90;;;;;;5004745;28;20513;-68
2021/08/23 09:34:53;;;;;;;2.05;0.40;;;21.10;99.90;;;;;;4983960;28;20022;-68
2021/08/23 09:37:21;;;;;;;3.40;1.35;;;21.40;99.90;;;;;;5003265;28;20137;-68
2021/08/23 09:39:47;;;;;;;1.70;0.68;;;21.70;99.90;;;;;;5003528;28;20601;-68
2021/08/23 09:42:14;;;;;;;2.13;0.68;;;21.90;99.90;;;;;;4985676;28;20033;-68
2021/08/23 09:44:41;;;;;;;3.53;0.60;;;22.00;99.90;;;;;;5004254;28;20042;-68
2021/08/23 09:47:07;;;;;;;14.65;1.00;;;21.80;99.90;;;;;;5000619;28;20046;-68
2021/08/23 09:49:41;;;;;;;2.03;0.52;;;21.70;99.90;;;;;;5003626;28;20026;-69
2021/08/23 09:52:08;;;;;;;2.70;0.52;;;21.60;99.90;;;;;;5004006;28;20084;-69
2021/08/23 09:54:34;;;;;;;1.77;0.50;;;21.70;99.90;;;;;;4982829;28;20545;-69
2021/08/23 09:57:00;;;;;;;3.35;0.85;;;21.70;99.90;;;;;;5002495;28;20034;-69
2021/08/23 09:59:28;;;;;;;4.18;0.90;;;21.50;99.90;;;;;;5003115;28;20040;-70
2021/08/23 10:01:56;;;;;;;4.03;0.70;;;21.10;99.90;;;;;;5003767;28;20041;-68
2021/08/23 10:04:22;;;;;;;2.05;0.55;;;21.00;99.90;;;;;;5003508;28;20112;-69
2021/08/23 10:06:50;;;;;;;1.85;0.63;;;21.00;99.90;;;;;;5003915;28;20042;-69
2021/08/23 10:09:23;;;;;;;3.05;0.70;;;21.10;99.90;;;;;;5005883;28;20022;-68
2021/08/23 10:11:52;;;;;;;1.80;0.73;;;21.30;99.90;;;;;;5003553;28;20137;-68
2021/08/23 10:14:19;;;;;;;3.93;0.80;;;21.40;99.90;;;;;;5004110;28;20105;-69
2021/08/23 10:16:45;;;;;;;4.82;0.73;;;21.50;99.90;;;;;;5004071;28;21002;-69
2021/08/23 10:19:11;;;;;;;1.70;0.70;;;21.60;99.90;;;;;;5003831;28;20038;-68
2021/08/23 10:21:42;;;;;;;3.28;0.60;;;21.80;99.90;;;;;;5004452;28;20104;-68
2021/08/23 10:24:09;;;;;;;2.28;0.43;;;21.80;99.90;;;;;;5005212;28;20061;-68
2021/08/23 10:26:46;;;;;;;1.60;0.50;;;21.70;99.90;;;;;;5004532;28;20033;-69
2021/08/23 10:29:13;;;;;;;3.70;0.82;;;21.70;99.90;;;;;;5004107;28;20065;-69
2021/08/23 10:31:42;;;;;;;1.30;0.52;;;21.80;99.90;;;;;;5003272;28;20035;-69
2021/08/23 10:34:18;;;;;;;2.58;1.08;;;21.80;99.90;;;;;;5004060;28;20034;-68
2021/08/23 10:36:45;;;;;;;1.58;0.50;;;21.90;99.90;;;;;;5004869;28;20541;-69
2021/08/23 10:39:21;;;;;;;2.05;0.80;;;21.90;99.90;;;;;;5003092;28;20508;-68
2021/08/23 10:41:49;;;;;;;2.40;0.70;;;22.00;99.90;;;;;;5004217;28;20710;-69
2021/08/23 10:44:28;;;;;;;3.60;0.90;;;22.00;99.90;;;;;;5004515;28;20037;-68
2021/08/23 10:47:29;;;;;;;5.55;1.20;;;22.00;99.90;;;;;;5004176;28;20037;-68
2021/08/23 10:49:55;;;;;;;2.05;0.70;;;22.00;99.90;;;;;;4987800;28;20042;-68
2021/08/23 10:52:35;;;;;;;1.63;0.65;;;22.10;99.90;;;;;;5002722;28;20046;-68
2021/08/23 10:55:01;;;;;;;0.90;0.52;;;22.20;99.90;;;;;;5004837;28;20041;-68
2021/08/23 10:57:27;;;;;;;3.55;0.57;;;22.20;99.90;;;;;;5005809;28;20022;-68
2021/08/23 11:00:06;;;;;;;3.47;0.80;;;22.30;99.90;;;;;;5002405;28;20040;-69
2021/08/23 11:02:34;;;;;;;4.88;0.50;;;22.10;99.90;;;;;;5005695;28;20060;-69
2021/08/23 11:05:06;;;;;;;3.17;0.70;;;22.00;99.90;;;;;;5004894;28;20033;-69
2021/08/23 11:07:34;;;;;;;1.92;0.45;;;21.80;99.90;;;;;;5004980;28;20037;-68
2021/08/23 11:10:13;;;;;;;1.58;0.60;;;21.80;99.90;;;;;;5002986;28;20050;-68
2021/08/23 11:12:54;;;;;;;4.07;0.90;;;21.90;99.90;;;;;;5007097;28;20096;-68
2021/08/23 11:15:31;;;;;;;3.25;0.63;;;22.00;99.90;;;;;;5004696;28;20042;-68
2021/08/23 11:18:04;;;;;;;1.98;0.65;;;22.10;99.90;;;;;;5004806;28;20054;-69
2021/08/23 11:20:52;;;;;;;2.05;0.60;;;22.10;99.90;;;;;;4985503;28;20121;-68
2021/08/23 11:23:24;;;;;;;4.10;0.82;;;22.10;99.90;;;;;;4987113;28;20040;-69
2021/08/23 11:25:51;;;;;;;2.30;0.50;;;22.10;99.90;;;;;;5002047;28;20092;-68
2021/08/23 11:28:19;;;;;;;5.57;0.80;;;22.20;99.90;;;;;;5004704;28;20068;-69
2021/08/23 11:30:51;;;;;;;2.60;0.93;;;22.10;99.90;;;;;;5002018;28;20129;-69
2021/08/23 11:33:31;;;;;;;3.67;0.73;;;22.10;99.90;;;;;;5004841;28;20034;-69
2021/08/23 11:35:58;;;;;;;3.67;0.52;;;22.20;99.90;;;;;;5005866;28;20048;-68
2021/08/23 11:38:28;;;;;;;3.75;0.63;;;22.20;99.90;;;;;;5002833;28;20049;-68
2021/08/23 11:40:54;;;;;;;0.88;0.30;;;22.00;99.90;;;;;;5004922;28;20040;-68
2021/08/23 11:43:27;;;;;;;7.55;0.65;;;21.90;99.90;;;;;;5005178;28;21512;-69
2021/08/23 11:45:55;;;;;;;1.33;0.52;;;22.10;99.90;;;;;;4987977;28;20045;-69
2021/08/23 11:48:20;;;;;;;3.05;0.45;;;22.20;99.90;;;;;;5008167;28;20042;-68
2021/08/23 11:50:46;;;;;;;2.13;0.68;;;22.30;99.90;;;;;;5004894;28;20096;-68
2021/08/23 11:53:12;;;;;;;1.27;0.50;;;22.30;99.90;;;;;;5002623;28;20508;-69
2021/08/23 11:55:48;;;;;;;1.95;0.45;;;22.40;99.90;;;;;;5004789;28;20117;-69
2021/08/23 11:58:22;;;;;;;7.32;0.88;;;22.30;99.90;;;;;;5003581;28;20034;-69
2021/08/23 12:01:07;;;;;;;3.30;0.50;;;22.10;99.90;;;;;;5005048;28;20053;-68
2021/08/23 12:03:34;;;;;;;2.15;0.50;;;22.10;99.90;;;;;;5002017;28;20053;-68
2021/08/23 12:06:08;;;;;;;1.58;0.55;;;22.20;99.90;;;;;;5005131;28;20034;-68
2021/08/23 12:08:38;;;;;;;1.15;0.40;;;22.10;99.90;;;;;;4986358;28;20124;-68
2021/08/23 12:11:10;;;;;;;4.38;0.60;;;22.00;99.90;;;;;;5003902;28;20049;-68
2021/08/23 12:13:39;;;;;;;4.28;0.63;;;22.10;99.90;;;;;;5003015;28;20033;-68
2021/08/23 12:16:15;;;;;;;4.40;0.50;;;22.10;99.90;;;;;;4999799;28;20042;-69
2021/08/23 12:18:49;;;;;;;2.53;0.90;;;22.10;99.90;;;;;;5002884;28;20041;-68
2021/08/23 12:21:19;;;;;;;2.55;0.68;;;22.30;99.90;;;;;;5003544;28;20049;-68
2021/08/23 12:23:49;;;;;;;3.28;0.40;;;22.50;99.90;;;;;;5004782;28;20041;-68
2021/08/23 12:26:16;;;;;;;3.28;0.70;;;22.60;99.90;;;;;;5006811;28;20049;-69
2021/08/23 12:28:55;;;;;;;5.45;0.90;;;22.60;99.90;;;;;;5007827;28;20975;-69
2021/08/23 12:31:21;;;;;;;3.15;0.50;;;22.50;99.90;;;;;;5007088;28;20038;-68
2021/08/23 12:33:47;;;;;;;2.03;0.60;;;22.40;99.90;;;;;;5007348;28;20052;-69
2021/08/23 12:36:13;;;;;;;2.63;0.75;;;22.50;99.90;;;;;;5005708;28;20066;-68
2021/08/23 12:38:41;;;;;;;2.08;0.82;;;22.60;99.90;;;;;;4988727;28;20038;-68
2021/08/23 12:41:07;;;;;;;2.53;0.60;;;22.60;99.90;;;;;;5008129;28;20056;-70
2021/08/23 12:43:38;;;;;;;3.75;0.82;;;22.30;99.90;;;;;;5006890;28;20525;-68
2021/08/23 12:46:03;;;;;;;2.20;0.43;;;22.20;99.90;;;;;;5006521;28;20116;-69